This is the latest recevied weather packets stored in our database for station/object K7VLL. If no packets are shown the sender has not sent any weather packets the latest 10 day(s).
| Time | Temp. | Humidity | Pressure | Rain* | Wind** | Luminosity | Snow |
|---|---|---|---|---|---|---|---|
| 1777646298 | 18.33° C | 49% | 1089.6 hPa | 0 mm | - | 172 W/m² | - |
| 1777644496 | 18.33° C | 51% | 1089.4 hPa | 0 mm | - | 51 W/m² | - |
| 1777642693 | 17.22° C | 55% | 1089.1 hPa | 0 mm | - | 36 W/m² | - |
| 1777640893 | 14.44° C | 65% | 1088.9 hPa | 0 mm | - | 20 W/m² | - |
| 1777639090 | 13.89° C | 66% | 1088.5 hPa | 0 mm | - | 2 W/m² | - |
| 1777637287 | 13.89° C | 66% | 1088.1 hPa | 0 mm | - | 0 W/m² | - |
| 1777635487 | 14.44° C | 64% | 1087.8 hPa | 0 mm | - | 0 W/m² | - |
| 1777633685 | 15° C | 61% | 1087.7 hPa | 0 mm | - | 0 W/m² | - |
| 1777631885 | 15° C | 61% | 1087.3 hPa | 0 mm | - | 0 W/m² | - |
| 1777630079 | 15.56° C | 58% | 1087.6 hPa | 0 mm | - | 0 W/m² | - |
| 1777628276 | 16.11° C | 56% | 1087 hPa | 0 mm | - | 0 W/m² | - |
| 1777626472 | 16.67° C | 53% | 1086.8 hPa | 0 mm | - | 0 W/m² | - |
| 1777624669 | 16.67° C | 52% | 1086.8 hPa | 0 mm | - | 0 W/m² | - |
| 1777622867 | 17.22° C | 52% | 1087 hPa | 0 mm | - | 0 W/m² | - |
| 1777621066 | 17.78° C | 50% | 1087.4 hPa | 0 mm | - | 0 W/m² | - |
| 1777619262 | 17.78° C | 50% | 1087.5 hPa | 0 mm | - | 0 W/m² | - |
| 1777617458 | 18.33° C | 48% | 1087.4 hPa | 0 mm | - | 0 W/m² | - |
| 1777615654 | 19.44° C | 41% | 1087.8 hPa | 0 mm | - | 0 W/m² | - |
| 1777613850 | 19.44° C | 38% | 1087.5 hPa | 0 mm | - | 0 W/m² | - |
| 1777612044 | 20° C | 37% | 1087.4 hPa | 0 mm | - | 0 W/m² | - |
| 1777610242 | 20.56° C | 40% | 1087 hPa | 0 mm | - | 0 W/m² | - |
| 1777608442 | 20.56° C | 41% | 1086.4 hPa | 0 mm | - | 0 W/m² | - |
| 1777606638 | 22.22° C | 35% | 1085.6 hPa | 0 mm | - | 0 W/m² | - |
| 1777604833 | 22.22° C | 31% | 1085.2 hPa | 0 mm | - | 0 W/m² | - |
| 1777603028 | 22.22° C | 32% | 1084.2 hPa | 0 mm | - | 0 W/m² | - |
* Rain latest hour (hover to see other rain measurements)
** Current wind speed in m/s (hover to see current wind gust speed)